Time;durP1;ratioP1;P1;durP2;ratioP2;P2;SDS_P1;SDS_P2;PMS_P1;PMS_P2;Temp;Humidity;BMP_temperature;BMP_pressure;BME280_temperature;BME280_humidity;BME280_pressure;Samples;Min_cycle;Max_cycle;Signal;HPM_P1;HPM_P2
2021/06/29 00:00:11;;;;;;;12.70;5.23;;;;;;;15.37;95.84;96502.56;3537178;40;20785;-72
2021/06/29 00:02:40;;;;;;;10.33;4.67;;;;;;;15.30;95.35;96496.97;3540358;40;20459;-73
2021/06/29 00:05:10;;;;;;;4.93;3.93;;;;;;;15.34;95.33;96502.81;3535175;40;20785;-72
2021/06/29 00:07:38;;;;;;;8.10;4.70;;;;;;;15.29;95.31;96503.25;3534538;40;20826;-72
2021/06/29 00:10:08;;;;;;;11.10;4.60;;;;;;;15.34;94.54;96510.72;3535510;40;20853;-72
2021/06/29 00:12:36;;;;;;;6.57;4.23;;;;;;;15.39;94.95;96500.63;3534090;40;20477;-72
2021/06/29 00:15:05;;;;;;;7.03;3.87;;;;;;;15.42;93.78;96501.16;3534354;40;20476;-71
2021/06/29 00:17:33;;;;;;;6.30;4.20;;;;;;;15.45;93.97;96510.63;3535157;40;20459;-72
2021/06/29 00:20:01;;;;;;;5.90;4.73;;;;;;;15.45;94.25;96502.69;3534230;40;20522;-72
2021/06/29 00:22:30;;;;;;;5.20;3.80;;;;;;;15.49;93.37;96492.72;3536884;40;20437;-73
2021/06/29 00:24:58;;;;;;;5.20;3.83;;;;;;;15.49;94.41;96493.53;3533613;40;20494;-72
2021/06/29 00:27:26;;;;;;;13.67;4.60;;;;;;;15.54;93.71;96504.53;3537278;40;20561;-72
2021/06/29 00:29:54;;;;;;;4.17;3.77;;;;;;;15.55;93.23;96505.34;3535680;40;20565;-71
2021/06/29 00:32:22;;;;;;;8.90;5.20;;;;;;;15.50;93.96;96489.06;3538513;40;20797;-71
2021/06/29 00:34:50;;;;;;;5.27;4.20;;;;;;;15.55;92.90;96486.88;3539564;40;20451;-74
2021/06/29 00:37:18;;;;;;;13.43;4.70;;;;;;;15.60;92.92;96481.97;3540552;40;20837;-71
2021/06/29 00:39:47;;;;;;;6.63;4.33;;;;;;;15.63;92.99;96477.28;3537622;40;20817;-72
2021/06/29 00:42:15;;;;;;;4.60;4.13;;;;;;;15.65;92.65;96473.66;3536587;40;20472;-71
2021/06/29 00:44:45;;;;;;;6.30;3.97;;;;;;;15.62;92.77;96467.69;3535315;40;20509;-71
2021/06/29 00:47:14;;;;;;;4.60;3.70;;;;;;;15.53;93.78;96462.41;3537957;40;20441;-72
2021/06/29 00:49:42;;;;;;;5.83;3.73;;;;;;;15.51;93.79;96441.44;3542376;40;20768;-71
2021/06/29 00:52:13;;;;;;;7.17;5.47;;;;;;;15.46;93.83;96433.09;3537759;40;20670;-71
2021/06/29 00:54:41;;;;;;;6.90;4.03;;;;;;;15.51;93.08;96430.88;3537612;40;20683;-71
2021/06/29 00:57:12;;;;;;;7.40;4.67;;;;;;;15.48;93.58;96417.13;3532133;40;20558;-71
2021/06/29 00:59:40;;;;;;;11.03;4.10;;;;;;;15.43;94.16;96399.94;3537380;40;20863;-71
2021/06/29 01:02:09;;;;;;;6.83;4.50;;;;;;;15.46;94.07;96396.16;3533939;40;20832;-72
2021/06/29 01:04:39;;;;;;;3.93;3.53;;;;;;;15.45;93.68;96386.59;3536697;40;20772;-72
2021/06/29 01:07:09;;;;;;;5.63;4.03;;;;;;;15.47;93.83;96395.19;3535920;40;20909;-72
2021/06/29 01:09:38;;;;;;;9.47;4.97;;;;;;;15.44;93.73;96406.03;3535924;40;20559;-72
2021/06/29 01:12:07;;;;;;;6.77;4.50;;;;;;;15.55;92.96;96418.25;3531544;40;20474;-72
2021/06/29 01:14:37;;;;;;;5.40;3.60;;;;;;;15.53;93.59;96391.16;3537821;40;20863;-72
2021/06/29 01:17:07;;;;;;;5.83;4.37;;;;;;;15.50;93.29;96376.44;3537658;40;20793;-72
2021/06/29 01:19:42;;;;;;;4.67;3.80;;;;;;;15.49;93.14;96352.84;3536327;40;20550;-72
2021/06/29 01:22:11;;;;;;;5.00;3.73;;;;;;;15.50;93.78;96336.03;3535574;40;20542;-72
2021/06/29 01:24:41;;;;;;;8.40;3.87;;;;;;;15.54;93.12;96313.66;3537131;40;21203;-72
2021/06/29 01:27:30;;;;;;;9.60;4.50;;;;;;;15.54;93.76;96311.00;3535109;40;20461;-72
2021/06/29 01:32:43;;;;;;;5.53;3.93;;;;;;;15.52;93.51;96386.84;3536598;40;20482;-71
2021/06/29 01:35:12;;;;;;;7.53;3.97;;;;;;;15.60;93.11;96376.41;3529765;40;20475;-72
2021/06/29 01:37:41;;;;;;;7.37;4.40;;;;;;;15.59;93.05;96370.31;3536851;40;21142;-74
2021/06/29 01:40:14;;;;;;;6.60;5.00;;;;;;;15.55;94.46;96386.59;3529082;40;20789;-71
2021/06/29 01:42:42;;;;;;;8.77;5.67;;;;;;;15.51;94.76;96401.88;3545764;40;20947;-72
2021/06/29 01:45:11;;;;;;;11.90;6.27;;;;;;;15.50;95.16;96416.00;3535326;40;20519;-72
2021/06/29 01:47:53;;;;;;;10.97;7.00;;;;;;;15.50;94.81;96407.28;3539419;40;20526;-72
2021/06/29 01:50:22;;;;;;;9.37;5.10;;;;;;;15.61;94.44;96434.34;3538203;40;20472;-72
2021/06/29 01:52:58;;;;;;;7.23;5.40;;;;;;;15.63;94.38;96429.75;3538475;40;20456;-72
2021/06/29 01:55:27;;;;;;;8.10;5.33;;;;;;;15.65;93.80;96442.81;3540663;40;20487;-72
2021/06/29 01:57:56;;;;;;;9.23;4.23;;;;;;;15.73;93.28;96460.63;3538506;40;20813;-72
2021/06/29 02:00:23;;;;;;;8.73;5.20;;;;;;;15.72;93.43;96474.75;3537337;40;20557;-72
2021/06/29 02:02:51;;;;;;;10.20;5.00;;;;;;;15.69;93.92;96480.34;3532411;40;20896;-72
2021/06/29 02:05:19;;;;;;;6.10;5.00;;;;;;;15.70;93.39;96474.91;3533859;40;20924;-73
2021/06/29 02:07:47;;;;;;;6.90;5.40;;;;;;;15.73;93.83;96479.94;3537423;40;20460;-73
2021/06/29 02:10:17;;;;;;;14.23;4.93;;;;;;;15.73;92.77;96482.56;3534365;40;20547;-73
2021/06/29 02:12:45;;;;;;;6.07;4.93;;;;;;;15.76;93.59;96481.47;3533136;40;21140;-73
2021/06/29 02:15:14;;;;;;;8.17;5.10;;;;;;;15.71;93.92;96463.38;3548415;40;20505;-72
2021/06/29 02:17:42;;;;;;;6.80;4.47;;;;;;;15.77;93.77;96475.22;3539239;40;20783;-71
2021/06/29 02:20:11;;;;;;;5.93;3.97;;;;;;;15.79;93.15;96468.81;3537341;40;20849;-73
2021/06/29 02:22:39;;;;;;;5.50;4.40;;;;;;;15.78;93.09;96463.69;3537080;40;20856;-73
2021/06/29 02:25:08;;;;;;;4.30;3.73;;;;;;;15.76;92.01;96457.72;3532083;40;20789;-72
2021/06/29 02:27:37;;;;;;;5.60;3.83;;;;;;;15.77;91.80;96459.38;3536500;40;20766;-71
2021/06/29 02:30:15;;;;;;;8.83;4.10;;;;;;;15.81;91.48;96458.09;3535874;40;20472;-74
2021/06/29 02:32:43;;;;;;;6.30;3.67;;;;;;;15.79;90.70;96462.69;3538227;40;21212;-73
2021/06/29 02:35:12;;;;;;;10.20;3.53;;;;;;;15.86;90.19;96468.25;3533997;40;20457;-72
2021/06/29 02:37:40;;;;;;;5.97;3.80;;;;;;;15.88;91.09;96475.06;3537277;40;20719;-72
2021/06/29 02:40:09;;;;;;;7.53;3.77;;;;;;;15.85;nan;96485.91;3530633;40;20924;-75
2021/06/29 02:42:38;;;;;;;3.97;3.57;;;;;;;15.87;91.25;96488.41;3536979;40;20728;-72
2021/06/29 02:45:08;;;;;;;7.00;3.50;;;;;;;15.83;90.83;96490.47;3536582;40;20920;-72
2021/06/29 02:47:37;;;;;;;8.70;3.33;;;;;;;15.86;89.36;96490.22;3531700;40;20931;-72
2021/06/29 02:50:07;;;;;;;4.03;3.40;;;;;;;15.89;90.15;96500.47;3538671;40;20550;-73
2021/06/29 02:52:35;;;;;;;6.20;3.30;;;;;;;15.87;90.90;96497.16;3540055;40;20899;-74
2021/06/29 02:55:06;;;;;;;8.90;4.47;;;;;;;15.81;90.85;96493.25;3532061;40;20486;-73
2021/06/29 02:57:35;;;;;;;5.60;3.23;;;;;;;15.85;90.58;96493.00;3535634;40;20468;-73
2021/06/29 03:00:07;;;;;;;8.43;3.80;;;;;;;15.88;90.51;96496.19;3540573;40;20457;-74
2021/06/29 03:02:35;;;;;;;10.20;2.90;;;;;;;15.84;89.72;96494.81;3537633;40;20550;-73
2021/06/29 03:05:04;;;;;;;7.20;3.50;;;;;;;15.72;90.21;96493.22;3534813;40;20468;-73
2021/06/29 03:07:32;;;;;;;8.33;3.63;;;;;;;15.66;90.06;96464.75;3547153;40;20676;-72
2021/06/29 03:10:00;;;;;;;6.20;3.07;;;;;;;15.66;90.57;96478.81;3535246;40;20480;-72
2021/06/29 03:12:28;;;;;;;10.57;3.83;;;;;;;15.63;91.99;96487.81;3536376;40;20460;-72
2021/06/29 03:14:57;;;;;;;8.50;3.20;;;;;;;15.60;92.24;96488.13;3536593;40;20951;-72
2021/06/29 03:17:26;;;;;;;4.30;3.40;;;;;;;15.61;92.49;96492.41;3535613;40;20554;-73
2021/06/29 03:19:55;;;;;;;6.60;2.60;;;;;;;15.52;92.94;96477.41;3537254;40;20487;-73
2021/06/29 03:22:23;;;;;;;17.30;3.80;;;;;;;15.34;92.94;96450.88;3536131;40;20829;-73
2021/06/29 03:24:51;;;;;;;6.37;3.33;;;;;;;15.55;92.90;96473.66;3544115;40;20566;-73
2021/06/29 03:27:20;;;;;;;3.23;2.93;;;;;;;15.56;92.47;96475.31;3533627;40;20548;-72
2021/06/29 03:29:49;;;;;;;6.20;3.00;;;;;;;15.52;91.81;96461.56;3532161;40;20475;-73
2021/06/29 03:32:17;;;;;;;5.50;3.70;;;;;;;15.37;93.31;96457.72;3539038;40;20516;-75
2021/06/29 03:34:47;;;;;;;4.27;3.30;;;;;;;15.49;93.22;96455.75;3538560;40;20553;-74
2021/06/29 03:37:15;;;;;;;3.50;3.03;;;;;;;15.53;91.49;96447.41;3532614;40;20575;-74
2021/06/29 03:39:43;;;;;;;10.27;3.30;;;;;;;15.50;91.49;96438.94;3537256;40;20930;-74
2021/06/29 03:42:11;;;;;;;4.17;2.93;;;;;;;15.44;91.76;96437.69;3534634;40;20930;-73
2021/06/29 03:44:38;;;;;;;7.13;2.77;;;;;;;15.41;92.07;96430.06;3538226;40;20543;-74
2021/06/29 03:47:06;;;;;;;3.33;2.73;;;;;;;15.53;91.11;96439.50;3536260;40;20440;-73
2021/06/29 03:49:35;;;;;;;7.77;3.10;;;;;;;15.42;90.95;96415.88;3535160;40;20479;-73
2021/06/29 03:52:05;;;;;;;4.40;3.30;;;;;;;15.49;92.16;96427.56;3537520;40;20523;-73
2021/06/29 03:54:33;;;;;;;3.77;3.47;;;;;;;15.47;91.79;96426.88;3535914;40;20840;-73
2021/06/29 03:57:01;;;;;;;7.67;2.73;;;;;;;15.36;91.97;96417.28;3538892;40;20789;-74
2021/06/29 03:59:29;;;;;;;5.50;2.80;;;;;;;15.42;92.15;96413.25;3537768;40;20589;-73
2021/06/29 04:01:56;;;;;;;3.73;2.57;;;;;;;15.34;92.50;96418.41;3535005;40;20429;-74
2021/06/29 04:04:24;;;;;;;6.70;2.70;;;;;;;15.41;91.63;96424.78;3536950;40;20705;-74
2021/06/29 04:06:53;;;;;;;9.20;3.57;;;;;;;15.29;92.21;96403.00;3541574;40;20709;-73
2021/06/29 04:09:22;;;;;;;4.27;3.57;;;;;;;15.42;92.10;96418.53;3535509;40;20935;-75
2021/06/29 04:11:50;;;;;;;3.50;3.20;;;;;;;15.40;93.35;96410.75;3532433;40;20465;-73
2021/06/29 04:14:18;;;;;;;3.30;3.00;;;;;;;15.51;92.89;96391.31;3530565;40;20960;-74
2021/06/29 04:16:46;;;;;;;4.03;3.50;;;;;;;15.53;94.11;96376.16;3534377;40;20544;-74
2021/06/29 04:19:14;;;;;;;6.60;3.83;;;;;;;15.71;94.25;96363.06;3537482;40;20475;-75
2021/06/29 04:21:42;;;;;;;3.93;3.03;;;;;;;15.79;94.76;96346.53;3535695;40;20452;-74
2021/06/29 04:24:11;;;;;;;6.93;3.50;;;;;;;15.75;94.52;96351.25;3538111;40;20756;-74
2021/06/29 04:26:40;;;;;;;11.03;4.10;;;;;;;15.72;94.05;96369.16;3536844;40;20947;-74
2021/06/29 04:29:08;;;;;;;6.37;2.83;;;;;;;15.55;93.82;96376.03;3536232;40;20477;-74
2021/06/29 04:31:40;;;;;;;4.53;4.03;;;;;;;15.38;94.33;96393.41;3536511;40;20526;-74
2021/06/29 04:34:08;;;;;;;8.60;4.27;;;;;;;15.37;95.08;96383.84;3538235;40;20496;-76
2021/06/29 04:36:36;;;;;;;4.23;3.73;;;;;;;15.31;94.65;96379.09;3535792;40;20492;-75
2021/06/29 04:39:04;;;;;;;5.07;3.57;;;;;;;15.25;94.59;96355.91;3534177;40;20544;-75
2021/06/29 04:41:33;;;;;;;4.37;3.23;;;;;;;15.42;94.29;96382.41;3541597;40;20463;-78
2021/06/29 04:44:02;;;;;;;8.23;3.23;;;;;;;15.53;93.38;96380.63;3539813;40;20704;-76
2021/06/29 04:46:31;;;;;;;3.70;3.07;;;;;;;15.60;93.05;96374.63;3545208;40;20730;-76
2021/06/29 04:48:59;;;;;;;3.57;3.27;;;;;;;15.66;92.41;96375.88;3536395;40;20480;-75
2021/06/29 04:51:27;;;;;;;7.17;3.67;;;;;;;15.65;92.58;96371.56;3535981;40;20902;-75
2021/06/29 04:53:55;;;;;;;3.60;3.03;;;;;;;15.84;92.57;96376.00;3535344;40;20460;-78
2021/06/29 04:56:23;;;;;;;3.37;3.00;;;;;;;15.76;92.14;96347.66;3538912;40;20765;-76
2021/06/29 04:58:53;;;;;;;5.70;4.20;;;;;;;15.87;92.76;96362.50;3538669;40;20841;-76
2021/06/29 05:01:23;;;;;;;5.07;3.57;;;;;;;15.90;93.82;96359.56;3536189;40;20532;-76
2021/06/29 05:03:52;;;;;;;9.83;3.47;;;;;;;15.93;93.75;96375.09;3532672;40;20893;-76
2021/06/29 05:06:21;;;;;;;3.33;2.80;;;;;;;15.97;93.79;96368.56;3535855;40;20822;-76
2021/06/29 05:08:50;;;;;;;4.40;3.10;;;;;;;15.86;92.35;96384.59;3537646;40;20839;-76
2021/06/29 05:11:18;;;;;;;6.50;2.77;;;;;;;15.71;92.36;96370.97;3527572;40;20702;-76
2021/06/29 05:13:46;;;;;;;3.70;3.23;;;;;;;15.89;92.81;96372.91;3522427;40;20839;-76
2021/06/29 05:16:14;;;;;;;11.17;3.10;;;;;;;16.02;93.61;96353.13;3530843;40;20908;-76
2021/06/29 05:18:44;;;;;;;8.53;4.03;;;;;;;16.14;93.54;96345.84;3538930;40;20436;-75
2021/06/29 05:21:12;;;;;;;11.10;3.10;;;;;;;16.23;93.83;96332.72;3537045;40;20659;-76
2021/06/29 05:23:40;;;;;;;3.80;3.03;;;;;;;16.31;93.20;96335.50;3537537;40;20446;-76
2021/06/29 05:26:08;;;;;;;7.87;3.03;;;;;;;16.37;92.01;96348.94;3535280;40;20476;-78
2021/06/29 05:28:36;;;;;;;4.97;3.20;;;;;;;16.15;91.52;96351.94;3535665;40;20832;-76
2021/06/29 05:31:08;;;;;;;3.20;2.87;;;;;;;15.95;93.76;96345.94;3538537;40;20844;-76
2021/06/29 05:33:36;;;;;;;5.70;4.47;;;;;;;16.09;92.60;96355.19;3537486;40;20707;-76
2021/06/29 05:36:06;;;;;;;7.67;3.30;;;;;;;16.12;92.15;96357.53;3535507;40;20852;-75
2021/06/29 05:38:34;;;;;;;7.33;3.33;;;;;;;16.04;92.68;96354.81;3542015;40;20474;-76
2021/06/29 05:41:03;;;;;;;4.87;2.87;;;;;;;16.14;91.73;96350.31;3534744;40;20697;-75
2021/06/29 05:43:31;;;;;;;3.63;3.07;;;;;;;16.20;91.87;96357.63;3541068;40;20868;-76
2021/06/29 05:45:59;;;;;;;3.03;2.73;;;;;;;16.22;90.67;96360.97;3538896;40;20780;-76
2021/06/29 05:48:31;;;;;;;3.80;3.20;;;;;;;16.21;90.91;96367.25;3539253;40;20758;-75
2021/06/29 05:51:00;;;;;;;4.93;2.93;;;;;;;16.35;90.60;96372.03;3533942;40;20459;-75
2021/06/29 05:53:30;;;;;;;14.77;7.80;;;;;;;16.47;89.93;96351.53;3536250;40;20833;-74
2021/06/29 05:55:59;;;;;;;14.17;8.67;;;;;;;16.39;87.99;96360.19;3538451;40;20499;-75
2021/06/29 05:58:27;;;;;;;16.50;9.23;;;;;;;16.50;89.58;96359.13;3532448;40;20441;-74
2021/06/29 06:00:55;;;;;;;4.13;3.43;;;;;;;16.57;90.06;96359.41;3532412;40;20944;-74
2021/06/29 06:03:23;;;;;;;2.80;2.53;;;;;;;16.26;90.48;96364.16;3536941;40;20473;-74
2021/06/29 06:05:51;;;;;;;3.53;2.80;;;;;;;16.26;90.08;96351.75;3534059;40;20777;-74
2021/06/29 06:08:18;;;;;;;3.90;2.93;;;;;;;16.35;89.41;96345.59;3538998;40;20981;-74
2021/06/29 06:10:48;;;;;;;3.70;2.33;;;;;;;16.24;89.41;96351.09;3531347;40;20934;-74
2021/06/29 06:13:16;;;;;;;4.07;2.50;;;;;;;16.47;88.96;96340.94;3537128;40;20924;-74
2021/06/29 06:15:44;;;;;;;3.40;2.40;;;;;;;16.60;87.80;96330.00;3536236;40;20519;-74
2021/06/29 06:18:12;;;;;;;5.07;2.33;;;;;;;16.61;88.55;96336.97;3534271;40;20475;-74
2021/06/29 06:20:40;;;;;;;3.67;2.07;;;;;;;16.72;86.82;96333.25;3536227;40;20852;-73
2021/06/29 06:23:08;;;;;;;2.30;2.10;;;;;;;16.87;86.24;96333.63;3533750;40;20465;-72
2021/06/29 06:25:36;;;;;;;6.93;2.90;;;;;;;16.91;85.78;96322.56;3538755;40;20469;-71
2021/06/29 06:28:06;;;;;;;4.57;2.30;;;;;;;17.10;85.46;96329.53;3538884;40;20449;-71
2021/06/29 06:30:33;;;;;;;2.27;1.50;;;;;;;17.26;82.90;96317.41;3538079;40;21108;-73
2021/06/29 06:33:01;;;;;;;1.70;1.60;;;;;;;17.10;82.11;96312.81;3540086;40;20513;-73
2021/06/29 06:35:30;;;;;;;2.40;2.20;;;;;;;17.35;82.14;96324.44;3545579;40;20541;-73
2021/06/29 06:37:57;;;;;;;2.50;1.73;;;;;;;17.39;81.68;96325.78;3538095;40;20847;-75
2021/06/29 06:40:25;;;;;;;17.80;2.20;;;;;;;17.39;82.30;96317.84;3537409;40;20846;-73
2021/06/29 06:42:53;;;;;;;2.60;1.83;;;;;;;17.42;82.68;96309.56;3536244;40;20480;-73
2021/06/29 06:45:24;;;;;;;3.27;2.10;;;;;;;17.34;82.93;96318.28;3536309;40;21215;-72
2021/06/29 06:47:52;;;;;;;1.87;1.63;;;;;;;17.30;82.33;96321.41;3536448;40;20844;-74
2021/06/29 06:50:22;;;;;;;2.60;2.10;;;;;;;17.26;82.13;96325.34;3537318;40;21265;-74
2021/06/29 06:52:50;;;;;;;2.73;2.40;;;;;;;17.35;83.16;96321.78;3536952;40;20664;-72
2021/06/29 06:55:19;;;;;;;5.00;2.10;;;;;;;17.18;83.75;96310.25;3534049;40;20790;-71
2021/06/29 06:57:47;;;;;;;4.63;2.03;;;;;;;17.50;82.58;96320.22;3535374;40;20722;-73
2021/06/29 07:00:15;;;;;;;3.50;2.43;;;;;;;17.44;83.29;96320.84;3533127;40;20452;-74
2021/06/29 07:02:45;;;;;;;3.23;2.53;;;;;;;17.77;82.35;96316.56;3538532;40;20829;-73
2021/06/29 07:05:13;;;;;;;5.40;2.27;;;;;;;17.81;82.22;96314.44;3532514;40;20758;-72
2021/06/29 07:07:41;;;;;;;4.07;2.43;;;;;;;17.79;83.57;96319.91;3537656;40;20450;-73
2021/06/29 07:10:10;;;;;;;3.10;2.80;;;;;;;18.00;81.69;96291.41;3537663;40;20573;-74
2021/06/29 07:12:39;;;;;;;2.50;2.30;;;;;;;18.13;81.24;96291.78;3542696;40;20447;-72
2021/06/29 07:15:08;;;;;;;2.30;2.10;;;;;;;18.41;80.64;96299.50;3535642;40;20475;-72
2021/06/29 07:17:38;;;;;;;3.43;2.23;;;;;;;18.49;79.62;96296.88;3534446;40;20849;-72
2021/06/29 07:20:09;;;;;;;4.03;2.10;;;;;;;18.57;79.60;96310.97;3536338;40;20896;-72
2021/06/29 07:22:38;;;;;;;4.37;2.27;;;;;;;18.58;79.18;96299.38;3541466;40;20441;-74
2021/06/29 07:25:14;;;;;;;4.93;1.97;;;;;;;18.48;79.06;96295.19;3533453;40;20918;-76
2021/06/29 07:27:42;;;;;;;36.73;20.80;;;;;;;18.64;80.50;96286.44;3536257;40;20824;-73
2021/06/29 07:30:11;;;;;;;3.50;2.73;;;;;;;18.56;78.36;96304.03;3536224;40;20546;-71
2021/06/29 07:32:42;;;;;;;4.57;1.90;;;;;;;18.82;77.42;96297.78;3544375;40;20891;-73
2021/06/29 07:35:12;;;;;;;6.67;2.00;;;;;;;18.97;78.98;96290.00;3544101;40;20713;-73
2021/06/29 07:37:40;;;;;;;2.40;1.70;;;;;;;19.08;75.57;96299.47;3535001;40;20728;-74
2021/06/29 07:40:09;;;;;;;1.93;1.73;;;;;;;19.56;75.42;96300.41;3537152;40;20524;-72
2021/06/29 07:42:36;;;;;;;4.10;1.80;;;;;;;19.45;74.62;96285.66;3550336;40;20725;-71
2021/06/29 07:45:12;;;;;;;3.37;1.87;;;;;;;19.81;71.11;96287.09;3539065;40;20459;-72
2021/06/29 07:47:41;;;;;;;3.27;1.70;;;;;;;19.83;73.87;96275.31;3542814;40;20779;-73
2021/06/29 07:50:12;;;;;;;3.73;1.93;;;;;;;20.24;68.99;96272.47;3537134;40;20501;-73
2021/06/29 07:52:40;;;;;;;7.53;2.00;;;;;;;20.30;69.17;96274.44;3532271;40;20535;-71
2021/06/29 07:55:08;;;;;;;1.93;1.73;;;;;;;20.13;69.46;96275.50;3533771;40;20521;-73
2021/06/29 07:57:36;;;;;;;1.50;1.30;;;;;;;20.22;68.38;96269.16;3541611;40;20813;-73
2021/06/29 08:00:06;;;;;;;1.37;1.27;;;;;;;20.40;65.91;96265.44;3531076;40;20468;-73
2021/06/29 08:02:34;;;;;;;2.50;1.63;;;;;;;20.42;65.28;96258.09;3538489;40;20704;-74
2021/06/29 08:05:02;;;;;;;2.37;1.80;;;;;;;21.28;64.13;96262.28;3534370;40;20845;-72
2021/06/29 08:07:32;;;;;;;2.07;1.70;;;;;;;21.64;61.81;96260.81;3536317;40;20440;-73
2021/06/29 08:10:00;;;;;;;2.23;1.37;;;;;;;22.02;60.62;96266.06;3542628;40;21169;-72
2021/06/29 08:12:28;;;;;;;2.20;1.67;;;;;;;21.65;60.85;96255.31;3543388;40;20720;-72
2021/06/29 08:14:56;;;;;;;3.30;1.30;;;;;;;21.13;62.47;96258.78;3533621;40;20709;-74
2021/06/29 08:17:24;;;;;;;4.73;1.30;;;;;;;21.40;63.68;96257.34;3536739;40;20888;-73
2021/06/29 08:19:52;;;;;;;2.60;1.70;;;;;;;21.24;64.05;96257.53;3533326;40;20825;-73
2021/06/29 08:22:20;;;;;;;4.70;1.50;;;;;;;21.73;62.46;96257.06;3537374;40;20563;-73
2021/06/29 08:24:49;;;;;;;3.67;1.50;;;;;;;22.29;60.32;96254.75;3533887;40;20551;-72
2021/06/29 08:27:18;;;;;;;2.50;1.30;;;;;;;22.48;61.24;96256.00;3531029;40;20516;-72
2021/06/29 08:29:46;;;;;;;1.23;1.10;;;;;;;22.27;61.21;96237.28;3533956;40;20905;-71
2021/06/29 08:32:14;;;;;;;2.40;1.20;;;;;;;21.42;64.18;96241.19;3535696;40;20965;-73
2021/06/29 08:34:42;;;;;;;4.33;1.57;;;;;;;21.63;63.91;96241.34;3539468;40;21058;-74
2021/06/29 08:37:10;;;;;;;3.23;1.27;;;;;;;21.88;60.99;96231.22;3528845;40;20442;-73
2021/06/29 08:39:38;;;;;;;1.80;1.53;;;;;;;22.42;60.83;96229.22;3539036;40;20480;-71
2021/06/29 08:42:08;;;;;;;3.63;1.30;;;;;;;21.78;61.43;96236.03;3536485;40;20841;-73
2021/06/29 08:44:36;;;;;;;9.23;1.30;;;;;;;21.29;61.84;96242.66;3533289;40;20919;-73
2021/06/29 08:47:07;;;;;;;1.20;0.97;;;;;;;21.61;57.44;96227.38;3535646;40;20922;-72
2021/06/29 08:49:35;;;;;;;4.40;1.23;;;;;;;22.18;60.23;96236.50;3528452;40;20766;-73
2021/06/29 08:52:05;;;;;;;1.20;1.10;;;;;;;22.69;56.05;96228.47;3531958;40;20471;-73
2021/06/29 08:54:34;;;;;;;3.57;1.20;;;;;;;22.68;57.80;96218.84;3535878;40;20445;-73
2021/06/29 08:57:03;;;;;;;1.80;1.00;;;;;;;22.55;59.86;96212.53;3536050;40;20813;-73
2021/06/29 08:59:33;;;;;;;3.43;1.10;;;;;;;22.45;54.21;96218.19;3537406;40;20954;-72
2021/06/29 09:02:02;;;;;;;2.10;0.77;;;;;;;22.97;53.68;96210.88;3531966;40;20434;-73
2021/06/29 09:04:43;;;;;;;0.97;0.80;;;;;;;22.85;55.20;96207.88;3535047;40;20456;-73
2021/06/29 09:07:19;;;;;;;1.50;1.20;;;;;;;22.81;54.26;96209.28;3534401;40;20547;-72
2021/06/29 09:09:49;;;;;;;1.70;1.10;;;;;;;23.46;53.04;96197.50;3528316;40;20478;-74
2021/06/29 09:12:45;;;;;;;1.93;0.87;;;;;;;22.33;54.41;96198.38;3541459;40;20469;-74
2021/06/29 09:15:34;;;;;;;5.07;1.00;;;;;;;23.01;53.98;96196.09;3530239;40;20821;-71
2021/06/29 09:18:16;;;;;;;1.23;1.10;;;;;;;23.03;53.04;96200.28;3537274;40;20528;-72
2021/06/29 09:20:47;;;;;;;2.90;1.10;;;;;;;23.01;53.83;96191.63;3538953;40;20466;-73
2021/06/29 09:23:18;;;;;;;2.13;1.00;;;;;;;22.89;55.67;96194.00;3532441;40;20437;-73
2021/06/29 09:25:49;;;;;;;1.50;1.30;;;;;;;23.87;52.50;96186.03;3539431;40;20851;-72
2021/06/29 09:28:20;;;;;;;2.23;1.10;;;;;;;22.90;55.66;96190.28;3534808;40;20545;-72
2021/06/29 09:30:51;;;;;;;1.63;1.10;;;;;;;22.75;56.76;96191.38;3543900;40;20503;-75
2021/06/29 09:33:21;;;;;;;7.70;1.43;;;;;;;23.33;53.27;96188.59;3536338;40;20441;-73
2021/06/29 09:35:51;;;;;;;1.93;1.00;;;;;;;22.70;55.27;96187.44;3540646;40;20456;-72
2021/06/29 09:38:22;;;;;;;3.17;1.27;;;;;;;22.63;54.84;96188.41;3536315;40;20828;-73
2021/06/29 09:41:01;;;;;;;8.47;1.23;;;;;;;23.03;54.85;96181.59;3533457;40;20464;-72
2021/06/29 09:43:32;;;;;;;1.37;1.00;;;;;;;24.41;51.70;96172.84;3538339;40;20761;-74
2021/06/29 09:46:02;;;;;;;3.10;1.40;;;;;;;24.61;49.91;96163.00;3535184;40;20469;-73
2021/06/29 09:48:39;;;;;;;4.03;1.00;;;;;;;24.24;52.56;96161.66;3532649;40;20455;-74
2021/06/29 09:51:14;;;;;;;1.37;0.83;;;;;;;23.39;53.18;96167.25;3536897;40;20778;-73
2021/06/29 09:53:43;;;;;;;3.40;1.30;;;;;;;23.41;53.08;96161.72;3538986;40;20914;-72
2021/06/29 09:56:14;;;;;;;1.63;1.13;;;;;;;23.67;54.51;96156.50;3535688;40;20472;-74
2021/06/29 09:58:49;;;;;;;1.90;1.10;;;;;;;23.84;54.48;96151.69;3535247;40;20480;-72
2021/06/29 10:01:20;;;;;;;2.07;1.10;;;;;;;23.70;52.66;96147.28;3535718;40;20495;-71
2021/06/29 10:03:51;;;;;;;4.70;1.30;;;;;;;22.87;55.01;96120.44;3539189;40;20452;-74
2021/06/29 10:06:21;;;;;;;3.73;1.10;;;;;;;22.71;54.70;96145.56;3537111;40;20566;-73
2021/06/29 10:08:50;;;;;;;4.60;1.13;;;;;;;23.54;53.65;96126.22;3533717;40;20440;-71
2021/06/29 10:11:31;;;;;;;3.23;1.17;;;;;;;23.68;53.65;96135.97;3532648;40;20884;-73
2021/06/29 10:14:02;;;;;;;1.53;1.10;;;;;;;24.37;52.20;96131.47;3534559;40;20472;-74
2021/06/29 10:16:37;;;;;;;4.60;1.30;;;;;;;25.26;52.27;96135.63;3536403;40;20917;-73
2021/06/29 10:19:17;;;;;;;3.40;1.40;;;;;;;26.61;50.10;96124.94;3536425;40;20523;-73
2021/06/29 10:21:48;;;;;;;2.40;1.00;;;;;;;26.14;45.90;96126.25;3536681;40;20535;-73
2021/06/29 10:24:17;;;;;;;2.30;1.20;;;;;;;25.84;50.45;96122.25;3534543;40;20449;-72
2021/06/29 10:26:46;;;;;;;2.57;1.20;;;;;;;26.35;51.89;96128.59;3532901;40;20456;-73
2021/06/29 10:29:16;;;;;;;2.23;1.10;;;;;;;27.38;47.66;96121.19;3533163;40;20920;-73
2021/06/29 10:31:47;;;;;;;1.60;1.07;;;;;;;27.69;46.29;96112.13;3535181;40;20749;-73
2021/06/29 10:34:16;;;;;;;4.50;1.30;;;;;;;25.48;50.72;96111.25;3534464;40;20566;-74
2021/06/29 10:36:47;;;;;;;1.53;0.90;;;;;;;26.34;49.08;96101.97;3534475;40;20453;-72
2021/06/29 10:39:17;;;;;;;2.60;1.00;;;;;;;24.44;50.53;96103.69;3531968;40;20865;-72
2021/06/29 10:41:47;;;;;;;1.27;1.00;;;;;;;23.63;50.19;96111.66;3535934;40;20915;-73
2021/06/29 10:44:18;;;;;;;5.90;0.90;;;;;;;25.36;47.23;96095.00;3529675;40;20465;-72
2021/06/29 10:46:50;;;;;;;1.77;1.20;;;;;;;24.55;49.11;96096.91;3538399;40;20457;-73
2021/06/29 10:49:36;;;;;;;4.57;0.97;;;;;;;26.22;49.34;96097.28;3534369;40;20450;-71
2021/06/29 10:52:09;;;;;;;2.63;1.00;;;;;;;27.10;45.70;96100.16;3534574;40;21178;-72
2021/06/29 10:54:48;;;;;;;5.20;1.20;;;;;;;27.47;45.02;96100.22;3537077;40;21120;-71
2021/06/29 10:57:19;;;;;;;2.00;1.10;;;;;;;29.54;43.19;96096.06;3547813;40;20578;-73
2021/06/29 10:59:50;;;;;;;1.07;0.97;;;;;;;28.66;39.88;96091.59;3533461;40;20986;-73
2021/06/29 11:02:35;;;;;;;1.77;1.60;;;;;;;27.01;42.88;96100.44;3538350;40;20455;-73
2021/06/29 11:05:06;;;;;;;22.87;14.53;;;;;;;26.86;44.04;96107.19;3535847;40;20713;-74
2021/06/29 11:07:42;;;;;;;1.87;1.23;;;;;;;26.38;44.81;96109.41;3543471;40;20489;-72
2021/06/29 11:10:13;;;;;;;2.20;1.20;;;;;;;26.94;46.14;96102.38;3538763;40;20522;-76
2021/06/29 11:12:52;;;;;;;2.37;1.10;;;;;;;27.34;42.16;96090.41;3535227;40;20814;-72
2021/06/29 11:15:39;;;;;;;1.97;1.50;;;;;;;26.19;46.22;96095.06;3534850;40;20952;-72
2021/06/29 11:18:09;;;;;;;4.43;1.13;;;;;;;26.99;48.30;96091.78;3534976;40;20873;-72
2021/06/29 11:20:42;;;;;;;2.07;1.17;;;;;;;26.36;48.15;96094.53;3537539;40;20713;-72
2021/06/29 11:23:16;;;;;;;8.50;1.37;;;;;;;27.19;47.34;96099.66;3538392;40;20919;-72
2021/06/29 11:25:54;;;;;;;3.00;1.10;;;;;;;26.74;45.88;96097.16;3537817;40;21067;-72
2021/06/29 11:28:44;;;;;;;6.20;1.57;;;;;;;27.75;45.72;96084.34;3539649;40;20461;-75
2021/06/29 11:31:25;;;;;;;4.03;0.80;;;;;;;27.44;42.30;96082.66;3534797;40;20950;-74
2021/06/29 11:33:57;;;;;;;2.80;1.50;;;;;;;25.70;48.49;96083.13;3536794;40;20966;-73
2021/06/29 11:36:45;;;;;;;2.80;1.00;;;;;;;26.88;48.94;96089.00;3536326;40;20546;-73
2021/06/29 11:39:26;;;;;;;1.67;1.23;;;;;;;26.71;47.68;96084.16;3535566;40;20465;-72
2021/06/29 11:42:01;;;;;;;2.93;1.20;;;;;;;27.37;46.23;96079.22;3547835;40;20836;-74
2021/06/29 11:44:46;;;;;;;1.83;1.20;;;;;;;26.89;47.61;96072.66;3541165;40;20474;-73
2021/06/29 11:47:16;;;;;;;2.80;1.47;;;;;;;26.36;49.44;96073.06;3535683;40;20474;-72